createdAt,value
2019-05-05T00:02:35.603Z,4.60
2019-05-05T00:05:15.447Z,4.78
2019-05-05T00:07:45.087Z,4.42
2019-05-05T00:10:16.345Z,4.72
2019-05-05T00:12:54.967Z,4.78
2019-05-05T00:15:37.641Z,5.20
2019-05-05T00:18:07.195Z,4.45
2019-05-05T00:20:36.484Z,4.62
2019-05-05T00:23:05.751Z,4.83
2019-05-05T00:25:35.042Z,5.75
2019-05-05T00:28:05.010Z,4.62
2019-05-05T00:30:34.475Z,5.65
2019-05-05T00:33:05.583Z,5.42
2019-05-05T00:35:34.983Z,6.20
2019-05-05T00:38:05.033Z,5.30
2019-05-05T00:40:35.255Z,5.42
2019-05-05T00:43:05.528Z,5.03
2019-05-05T00:45:36.002Z,5.20
2019-05-05T00:48:24.422Z,4.78
2019-05-05T00:50:55.477Z,4.85
2019-05-05T00:53:25.073Z,4.78
2019-05-05T00:55:54.739Z,4.97
2019-05-05T00:58:24.764Z,5.25
2019-05-05T01:00:55.711Z,5.85
2019-05-05T01:03:26.042Z,5.50
2019-05-05T01:05:59.908Z,5.28
2019-05-05T01:08:29.550Z,6.30
2019-05-05T01:10:59.475Z,6.00
2019-05-05T01:13:28.771Z,5.35
2019-05-05T01:15:58.060Z,6.10
2019-05-05T01:18:27.636Z,5.45
2019-05-05T01:20:57.243Z,4.95
2019-05-05T01:23:26.514Z,5.72
2019-05-05T01:25:55.808Z,5.17
2019-05-05T01:28:25.113Z,5.28
2019-05-05T01:30:56.150Z,4.90
2019-05-05T01:33:27.069Z,4.17
2019-05-05T01:35:56.351Z,5.15
2019-05-05T01:38:27.575Z,4.80
2019-05-05T01:41:14.806Z,3.92
2019-05-05T01:43:45.170Z,4.12
2019-05-05T01:46:14.651Z,4.37
2019-05-05T01:48:44.513Z,4.85
2019-05-05T01:51:14.397Z,5.20
2019-05-05T01:53:44.277Z,5.33
2019-05-05T01:56:15.384Z,4.05
2019-05-05T01:58:45.021Z,4.20
2019-05-05T02:01:15.253Z,4.20
2019-05-05T02:03:45.211Z,4.35
2019-05-05T02:06:14.488Z,4.42
2019-05-05T02:08:45.438Z,4.20
2019-05-05T02:11:15.626Z,4.30
2019-05-05T02:13:45.331Z,4.10
2019-05-05T02:16:15.129Z,3.60
2019-05-05T02:18:45.091Z,3.83
2019-05-05T02:21:14.571Z,4.10
2019-05-05T02:23:45.337Z,3.40
2019-05-05T02:26:15.252Z,3.83
2019-05-05T02:28:55.221Z,3.30
2019-05-05T02:31:26.147Z,3.75
2019-05-05T02:33:56.815Z,3.65
2019-05-05T02:36:26.514Z,3.30
2019-05-05T02:38:56.719Z,3.02
2019-05-05T02:41:26.546Z,3.30
2019-05-05T02:43:56.360Z,3.33
2019-05-05T02:46:30.929Z,3.35
2019-05-05T02:49:05.033Z,3.22
2019-05-05T02:51:35.476Z,3.83
2019-05-05T02:54:05.166Z,3.50
2019-05-05T02:56:39.244Z,4.47
2019-05-05T02:59:10.411Z,4.22
2019-05-05T03:01:44.636Z,4.65
2019-05-05T03:04:14.290Z,3.72
2019-05-05T03:06:46.687Z,3.50
2019-05-05T03:09:16.924Z,4.62
2019-05-05T03:11:48.340Z,4.55
2019-05-05T03:14:19.171Z,3.83
2019-05-05T03:16:49.563Z,4.72
2019-05-05T03:19:20.795Z,3.80
2019-05-05T03:21:50.408Z,4.12
2019-05-05T03:24:20.024Z,3.80
2019-05-05T03:26:49.629Z,4.20
2019-05-05T03:29:20.907Z,4.05
2019-05-05T03:31:51.119Z,4.40
2019-05-05T03:34:20.499Z,4.65
2019-05-05T03:36:50.268Z,4.10
2019-05-05T03:39:23.464Z,4.53
2019-05-05T03:42:00.459Z,4.05
2019-05-05T03:44:33.419Z,4.75
2019-05-05T03:47:03.563Z,4.05
2019-05-05T03:49:33.809Z,3.70
2019-05-05T03:52:04.851Z,4.30
2019-05-05T03:54:34.803Z,4.05
2019-05-05T03:57:09.988Z,3.72
2019-05-05T03:59:41.295Z,3.95
2019-05-05T04:02:24.427Z,4.33
2019-05-05T04:04:55.439Z,4.60
2019-05-05T04:07:24.707Z,4.45
2019-05-05T04:09:54.406Z,4.40
2019-05-05T04:12:24.304Z,5.12
2019-05-05T04:14:54.668Z,6.03
2019-05-05T04:17:33.516Z,5.40
2019-05-05T04:20:04.011Z,5.55
2019-05-05T04:22:34.362Z,6.45
2019-05-05T04:25:04.740Z,7.62
2019-05-05T04:27:34.395Z,6.17
2019-05-05T04:30:05.322Z,6.40
2019-05-05T04:32:34.898Z,6.80
2019-05-05T04:35:05.908Z,8.13
2019-05-05T04:37:35.203Z,7.08
2019-05-05T04:40:05.047Z,7.30
2019-05-05T04:42:34.342Z,7.90
2019-05-05T04:45:07.078Z,8.55
2019-05-05T04:47:38.008Z,7.20
2019-05-05T04:50:21.144Z,7.83
2019-05-05T04:52:53.928Z,8.18
2019-05-05T04:55:24.481Z,8.78
2019-05-05T04:57:54.151Z,9.10
2019-05-05T05:00:24.138Z,8.75
2019-05-05T05:02:55.532Z,7.90
2019-05-05T05:05:26.539Z,8.78
2019-05-05T05:07:57.969Z,8.75
2019-05-05T05:10:26.819Z,7.87
2019-05-05T05:12:56.415Z,8.08
2019-05-05T05:15:25.711Z,8.60
2019-05-05T05:17:59.443Z,8.18
2019-05-05T05:20:28.735Z,7.15
2019-05-05T05:22:58.015Z,7.55
2019-05-05T05:25:27.627Z,6.83
2019-05-05T05:27:56.916Z,6.78
2019-05-05T05:30:26.204Z,7.47
2019-05-05T05:32:55.479Z,7.20
2019-05-05T05:35:24.762Z,7.12
2019-05-05T05:37:57.408Z,5.50
2019-05-05T05:40:44.308Z,5.72
2019-05-05T05:43:15.056Z,5.65
2019-05-05T05:45:45.976Z,6.15
2019-05-05T05:48:16.903Z,5.53
2019-05-05T05:50:56.963Z,6.05
2019-05-05T05:53:26.242Z,6.50
2019-05-05T05:55:55.544Z,5.87
2019-05-05T05:58:25.097Z,4.80
2019-05-05T06:00:55.662Z,5.35
2019-05-05T06:03:24.959Z,5.87
2019-05-05T06:05:54.538Z,5.30
2019-05-05T06:08:24.324Z,5.97
2019-05-05T06:10:54.736Z,5.78
2019-05-05T06:13:24.392Z,5.65
2019-05-05T06:15:53.758Z,4.53
2019-05-05T06:18:24.336Z,5.80
2019-05-05T06:20:53.933Z,5.30
2019-05-05T06:23:23.965Z,4.33
2019-05-05T06:25:55.213Z,4.05
2019-05-05T06:28:24.707Z,4.55
2019-05-05T06:30:54.632Z,5.47
2019-05-05T06:33:24.296Z,5.83
2019-05-05T06:35:53.786Z,5.67
2019-05-05T06:38:24.174Z,5.17
2019-05-05T06:41:07.605Z,6.08
2019-05-05T06:43:55.247Z,5.78
2019-05-05T06:46:34.112Z,6.00
2019-05-05T06:49:04.338Z,4.72
2019-05-05T06:51:33.758Z,5.20
2019-05-05T06:54:04.654Z,4.55
2019-05-05T06:56:34.408Z,4.28
2019-05-05T06:59:04.460Z,4.87
2019-05-05T07:01:34.139Z,4.20
2019-05-05T07:04:03.544Z,4.42
2019-05-05T07:06:34.315Z,4.12
2019-05-05T07:09:05.501Z,4.60
2019-05-05T07:11:34.872Z,5.30
2019-05-05T07:14:04.182Z,4.85
2019-05-05T07:16:34.538Z,4.45
2019-05-05T07:19:04.437Z,4.37
2019-05-05T07:21:34.298Z,3.80
2019-05-05T07:24:04.032Z,3.22
2019-05-05T07:26:34.061Z,2.60
2019-05-05T07:29:04.537Z,2.85
2019-05-05T07:31:34.322Z,3.05
2019-05-05T07:34:04.747Z,3.08
2019-05-05T07:36:41.633Z,2.80
2019-05-05T07:39:11.480Z,3.00
2019-05-05T07:41:41.112Z,3.30
2019-05-05T07:44:24.973Z,1.90
2019-05-05T07:46:41.394Z,1.30
2019-05-05T07:49:19.635Z,1.63
2019-05-05T07:51:49.179Z,1.60
2019-05-05T07:54:18.510Z,1.50
2019-05-05T07:56:47.812Z,2.25
2019-05-05T07:59:17.443Z,1.82
2019-05-05T08:01:47.062Z,2.50
2019-05-05T08:04:16.660Z,2.40
2019-05-05T08:06:46.105Z,3.08
2019-05-05T08:09:15.465Z,3.35
2019-05-05T08:11:45.083Z,2.62
2019-05-05T08:14:14.793Z,2.55
2019-05-05T08:17:01.460Z,3.10
2019-05-05T08:19:34.590Z,2.47
2019-05-05T08:22:03.876Z,2.00
2019-05-05T08:24:50.818Z,3.10
2019-05-05T08:27:25.001Z,3.10
2019-05-05T08:30:02.072Z,2.83
2019-05-05T08:32:35.018Z,3.27
2019-05-05T08:35:04.316Z,3.92
2019-05-05T08:37:34.377Z,3.50
2019-05-05T08:40:06.547Z,4.40
2019-05-05T08:42:35.921Z,4.42
2019-05-05T08:45:06.163Z,5.22
2019-05-05T08:47:35.447Z,5.30
2019-05-05T08:50:07.795Z,4.97
2019-05-05T08:52:37.072Z,5.28
2019-05-05T08:55:06.451Z,4.87
2019-05-05T08:57:35.976Z,4.83
2019-05-05T09:00:07.432Z,4.10
2019-05-05T09:02:36.787Z,3.77
2019-05-05T09:05:06.844Z,4.10
2019-05-05T09:07:36.131Z,4.62
2019-05-05T09:10:06.247Z,3.90
2019-05-05T09:12:35.632Z,4.00
2019-05-05T09:15:08.779Z,4.10
2019-05-05T09:17:38.143Z,3.87
2019-05-05T09:20:07.421Z,4.83
2019-05-05T09:22:36.803Z,3.30
2019-05-05T09:25:24.246Z,2.72
2019-05-05T09:27:55.439Z,3.05
2019-05-05T09:32:51.083Z,3.52
2019-05-05T09:35:20.419Z,3.02
2019-05-05T09:37:49.745Z,3.10
2019-05-05T09:40:24.128Z,2.30
2019-05-05T09:42:53.552Z,2.20
2019-05-05T09:45:24.443Z,2.15
2019-05-05T09:47:54.016Z,2.40
2019-05-05T09:50:23.796Z,1.80
2019-05-05T09:52:53.673Z,2.65
2019-05-05T09:55:24.199Z,2.72
2019-05-05T09:57:54.038Z,2.62
2019-05-05T10:00:24.386Z,2.47
2019-05-05T10:02:54.460Z,2.30
2019-05-05T10:05:24.171Z,2.42
2019-05-05T10:07:54.469Z,2.20
2019-05-05T10:10:24.372Z,2.45
2019-05-05T10:12:55.012Z,2.90
2019-05-05T10:15:24.409Z,2.33
2019-05-05T10:17:54.193Z,2.15
2019-05-05T10:20:23.710Z,2.60
2019-05-05T10:22:54.244Z,2.37
2019-05-05T10:25:37.001Z,2.90
2019-05-05T10:28:06.296Z,2.25
2019-05-05T10:30:35.643Z,2.37
2019-05-05T10:33:04.935Z,2.25
2019-05-05T10:35:34.588Z,3.25
2019-05-05T10:38:04.120Z,2.47
2019-05-05T10:40:34.608Z,3.22
2019-05-05T10:43:04.715Z,3.00
2019-05-05T10:45:34.170Z,2.40
2019-05-05T10:48:04.209Z,2.95
2019-05-05T10:50:34.619Z,2.80
2019-05-05T10:53:04.746Z,2.85
2019-05-05T10:55:34.845Z,2.70
2019-05-05T10:58:04.263Z,2.47
2019-05-05T11:00:48.478Z,2.02
2019-05-05T11:03:17.844Z,4.67
2019-05-05T11:05:47.544Z,4.20
2019-05-05T11:08:16.916Z,4.87
2019-05-05T11:10:46.191Z,4.62
2019-05-05T11:13:15.587Z,4.78
2019-05-05T11:15:44.959Z,4.35
2019-05-05T11:18:15.002Z,4.58
2019-05-05T11:20:45.128Z,3.75
2019-05-05T11:23:15.216Z,3.15
2019-05-05T11:25:45.030Z,3.80
2019-05-05T11:28:14.401Z,3.47
2019-05-05T11:30:46.387Z,3.37
2019-05-05T11:33:34.481Z,3.10
2019-05-05T11:36:06.007Z,3.92
2019-05-05T11:38:35.403Z,3.95
2019-05-05T11:41:05.071Z,3.27
2019-05-05T11:43:34.407Z,2.77
2019-05-05T11:46:05.220Z,2.58
2019-05-05T11:48:34.591Z,2.45
2019-05-05T11:51:04.494Z,2.12
2019-05-05T11:53:34.179Z,2.50
2019-05-05T11:56:04.149Z,2.67
2019-05-05T11:58:34.071Z,2.08
2019-05-05T12:01:03.865Z,2.60
2019-05-05T12:03:34.113Z,2.10
2019-05-05T12:06:03.987Z,2.30
2019-05-05T12:08:34.525Z,2.00
2019-05-05T12:11:05.396Z,1.98
2019-05-05T12:13:35.036Z,1.50
2019-05-05T12:16:05.911Z,1.90
2019-05-05T12:18:35.643Z,1.90
2019-05-05T12:21:05.469Z,1.67
2019-05-05T12:23:34.763Z,2.50
2019-05-05T12:26:08.535Z,2.10
2019-05-05T12:28:51.401Z,2.15
2019-05-05T12:31:24.601Z,2.15
2019-05-05T12:33:54.836Z,1.95
2019-05-05T12:36:24.255Z,2.77
2019-05-05T12:38:54.632Z,2.25
2019-05-05T12:41:24.365Z,2.10
2019-05-05T12:43:54.958Z,3.15
2019-05-05T12:46:38.257Z,2.00
2019-05-05T12:49:09.443Z,2.58
2019-05-05T12:51:38.743Z,2.20
2019-05-05T12:54:08.191Z,2.10
2019-05-05T12:56:37.483Z,1.90
2019-05-05T12:59:08.471Z,2.60
2019-05-05T13:01:39.658Z,2.47
2019-05-05T13:04:08.923Z,2.33
2019-05-05T13:06:38.475Z,1.95
2019-05-05T13:09:08.775Z,1.98
2019-05-05T13:11:38.373Z,1.25
2019-05-05T13:14:07.658Z,1.50
2019-05-05T13:16:36.947Z,1.85
2019-05-05T13:19:07.855Z,2.10
2019-05-05T13:21:45.010Z,1.70
2019-05-05T13:24:34.324Z,2.02
2019-05-05T13:27:10.741Z,1.65
2019-05-05T13:29:39.240Z,1.90
2019-05-05T13:32:08.819Z,1.80
2019-05-05T13:34:38.159Z,1.47
2019-05-05T13:37:07.679Z,1.82
2019-05-05T13:39:37.135Z,1.52
2019-05-05T13:42:06.437Z,1.35
2019-05-05T13:44:49.199Z,1.45
2019-05-05T13:47:18.479Z,1.50
2019-05-05T13:49:47.940Z,1.98
2019-05-05T13:52:17.222Z,2.12
2019-05-05T13:54:46.513Z,1.70
2019-05-05T13:57:15.795Z,1.92
2019-05-05T13:59:45.096Z,1.37
2019-05-05T14:02:14.368Z,1.50
2019-05-05T14:04:43.951Z,1.25
2019-05-05T14:07:13.331Z,1.37
2019-05-05T14:09:44.185Z,1.57
2019-05-05T14:12:14.621Z,1.45
2019-05-05T14:14:44.124Z,1.60
2019-05-05T14:17:14.747Z,2.17
2019-05-05T14:19:44.614Z,1.05
2019-05-05T14:22:14.077Z,1.30
2019-05-05T14:24:45.003Z,1.50
2019-05-05T14:27:14.569Z,1.45
2019-05-05T14:29:57.685Z,1.42
2019-05-05T14:32:31.299Z,1.80
2019-05-05T14:35:05.476Z,2.65
2019-05-05T14:37:36.724Z,1.85
2019-05-05T14:40:07.957Z,2.08
2019-05-05T14:42:37.230Z,2.58
2019-05-05T14:45:07.065Z,1.72
2019-05-05T14:47:36.451Z,2.77
2019-05-05T14:50:06.124Z,1.75
2019-05-05T14:52:35.399Z,2.37
2019-05-05T14:55:08.752Z,2.17
2019-05-05T14:57:38.059Z,4.67
2019-05-05T15:00:10.939Z,3.27
2019-05-05T15:02:40.231Z,2.22
2019-05-05T15:05:27.804Z,2.17
2019-05-05T15:07:58.730Z,2.27
2019-05-05T15:10:47.844Z,1.80
2019-05-05T15:13:17.308Z,1.32
2019-05-05T15:15:46.647Z,1.60
2019-05-05T15:18:16.027Z,1.35
2019-05-05T15:20:45.628Z,1.20
2019-05-05T15:23:15.440Z,1.67
2019-05-05T15:25:44.747Z,1.27
2019-05-05T15:28:14.068Z,1.47
2019-05-05T15:30:44.099Z,1.55
2019-05-05T15:33:13.884Z,1.40
2019-05-05T15:35:46.318Z,1.80
2019-05-05T15:38:14.315Z,1.40
2019-05-05T15:40:44.664Z,1.82
2019-05-05T15:43:15.248Z,1.37
2019-05-05T15:45:44.642Z,1.85
2019-05-05T15:48:14.069Z,1.55
2019-05-05T15:50:44.356Z,1.75
2019-05-05T15:53:14.410Z,1.90
2019-05-05T15:55:47.542Z,1.80
2019-05-05T15:58:16.148Z,1.55
2019-05-05T16:00:47.848Z,1.32
2019-05-05T16:03:18.751Z,1.30
2019-05-05T16:05:48.378Z,1.35
2019-05-05T16:08:17.663Z,1.50
2019-05-05T16:10:47.219Z,1.40
2019-05-05T16:13:16.606Z,1.50
2019-05-05T16:15:47.863Z,1.25
2019-05-05T16:18:24.494Z,1.50
2019-05-05T16:20:55.400Z,1.70
2019-05-05T16:23:29.075Z,1.70
2019-05-05T16:25:58.440Z,1.60
2019-05-05T16:28:27.727Z,1.30
2019-05-05T16:30:57.017Z,1.45
2019-05-05T16:33:28.216Z,1.47
2019-05-05T16:35:57.486Z,1.47
2019-05-05T16:38:26.779Z,2.00
2019-05-05T16:40:56.055Z,1.57
2019-05-05T16:43:25.355Z,14.18
2019-05-05T16:45:54.930Z,2.20
2019-05-05T16:48:25.775Z,1.70
2019-05-05T16:50:55.223Z,1.35
2019-05-05T16:53:37.707Z,2.12
2019-05-05T16:56:10.489Z,1.85
2019-05-05T16:58:39.824Z,2.80
2019-05-05T17:01:10.836Z,2.20
2019-05-05T17:03:40.766Z,2.30
2019-05-05T17:06:10.101Z,2.40
2019-05-05T17:08:39.374Z,2.47
2019-05-05T17:11:08.671Z,3.08
2019-05-05T17:13:51.876Z,2.80
2019-05-05T17:16:40.904Z,2.20
2019-05-05T17:19:17.844Z,1.62
2019-05-05T17:21:53.557Z,2.10
2019-05-05T17:24:24.008Z,2.10
2019-05-05T17:26:54.912Z,2.00
2019-05-05T17:29:24.823Z,2.30
2019-05-05T17:31:54.232Z,2.70
2019-05-05T17:34:24.683Z,2.52
2019-05-05T17:36:54.367Z,2.00
2019-05-05T17:39:25.367Z,1.70
2019-05-05T17:41:56.415Z,1.82
2019-05-05T17:44:27.344Z,1.60
2019-05-05T17:46:58.579Z,1.65
2019-05-05T17:49:32.328Z,1.98
2019-05-05T17:52:06.203Z,1.67
2019-05-05T17:54:44.556Z,2.85
2019-05-05T17:57:14.281Z,2.00
2019-05-05T17:59:44.120Z,3.02
2019-05-05T18:02:13.996Z,2.60
2019-05-05T18:04:44.447Z,2.98
2019-05-05T18:07:24.392Z,2.27
2019-05-05T18:09:58.640Z,2.42
2019-05-05T18:12:41.811Z,2.42
2019-05-05T18:15:13.631Z,2.10
2019-05-05T18:17:43.389Z,2.52
2019-05-05T18:20:12.901Z,2.02
2019-05-05T18:22:43.516Z,1.70
2019-05-05T18:25:14.332Z,1.65
2019-05-05T18:27:43.805Z,2.02
2019-05-05T18:30:13.471Z,2.30
2019-05-05T18:32:42.753Z,2.58
2019-05-05T18:35:13.526Z,1.82
2019-05-05T18:37:43.611Z,1.90
2019-05-05T18:40:14.552Z,2.10
2019-05-05T18:42:44.666Z,2.27
2019-05-05T18:45:15.687Z,2.35
2019-05-05T18:47:44.983Z,2.40
2019-05-05T18:50:14.682Z,2.20
2019-05-05T18:52:47.043Z,1.85
2019-05-05T18:55:15.248Z,2.20
2019-05-05T18:57:44.531Z,1.98
2019-05-05T19:00:16.044Z,1.85
2019-05-05T19:02:53.601Z,1.70
2019-05-05T19:05:36.907Z,1.70
2019-05-05T19:08:10.779Z,1.70
2019-05-05T19:10:40.050Z,1.65
2019-05-05T19:13:09.363Z,1.95
2019-05-05T19:15:38.819Z,1.65
2019-05-05T19:18:08.113Z,2.12
2019-05-05T19:20:39.099Z,3.75
2019-05-05T19:23:09.100Z,2.98
2019-05-05T19:25:38.499Z,1.75
2019-05-05T19:28:08.143Z,2.40
2019-05-05T19:30:37.784Z,2.30
2019-05-05T19:33:07.151Z,1.72
2019-05-05T19:35:43.720Z,1.70
2019-05-05T19:38:07.440Z,1.92
2019-05-05T19:40:36.776Z,2.02
2019-05-05T19:43:06.087Z,2.08
2019-05-05T19:45:35.615Z,2.12
2019-05-05T19:48:06.044Z,1.65
2019-05-05T19:50:40.042Z,2.60
2019-05-05T19:53:25.420Z,1.60
2019-05-05T19:55:55.657Z,2.08
2019-05-05T19:58:24.931Z,3.25
2019-05-05T20:00:56.025Z,2.80
2019-05-05T20:03:25.406Z,5.35
2019-05-05T20:05:54.983Z,3.60
2019-05-05T20:08:24.260Z,3.27
2019-05-05T20:10:54.182Z,2.80
2019-05-05T20:13:24.063Z,3.30
2019-05-05T20:15:54.975Z,2.55
2019-05-05T20:18:24.940Z,2.83
2019-05-05T20:21:03.761Z,3.17
2019-05-05T20:23:26.002Z,3.85
2019-05-05T20:25:56.762Z,3.60
2019-05-05T20:28:26.254Z,2.92
2019-05-05T20:30:55.784Z,3.15
2019-05-05T20:33:38.478Z,2.62
2019-05-05T20:36:25.000Z,3.33
2019-05-05T20:38:55.465Z,2.90
2019-05-05T20:41:25.044Z,3.95
2019-05-05T20:43:54.507Z,3.65
2019-05-05T20:46:23.923Z,3.40
2019-05-05T20:48:54.481Z,3.60
2019-05-05T20:51:24.355Z,2.80
2019-05-05T20:53:54.295Z,3.40
2019-05-05T20:56:24.115Z,2.72
2019-05-05T20:58:54.858Z,3.60
2019-05-05T21:01:24.749Z,3.20
2019-05-05T21:03:54.000Z,3.62
2019-05-05T21:06:24.590Z,3.20
2019-05-05T21:08:54.137Z,3.15
2019-05-05T21:11:24.688Z,3.35
2019-05-05T21:13:54.403Z,3.00
2019-05-05T21:16:24.059Z,3.65
2019-05-05T21:18:54.018Z,4.00
2019-05-05T21:21:25.323Z,3.30
2019-05-05T21:23:56.258Z,3.65
2019-05-05T21:26:45.910Z,3.76
2019-05-05T21:29:15.996Z,3.90
2019-05-05T21:31:45.287Z,3.58
2019-05-05T21:34:14.583Z,3.80
2019-05-05T21:36:44.703Z,3.90
2019-05-05T21:39:15.071Z,3.42
2019-05-05T21:41:44.455Z,3.15
2019-05-05T21:44:14.638Z,4.60
2019-05-05T21:46:44.235Z,3.35
2019-05-05T21:49:13.886Z,3.30
2019-05-05T21:51:47.904Z,3.33
2019-05-05T21:54:36.755Z,3.30
2019-05-05T21:57:07.687Z,3.55
2019-05-05T21:59:36.983Z,4.37
2019-05-05T22:02:06.591Z,3.60
2019-05-05T22:04:35.892Z,4.95
2019-05-05T22:07:05.403Z,3.50
2019-05-05T22:09:34.691Z,3.50
2019-05-05T22:12:04.226Z,4.05
2019-05-05T22:14:34.141Z,3.62
2019-05-05T22:17:04.129Z,4.00
2019-05-05T22:19:44.566Z,3.52
2019-05-05T22:22:15.471Z,3.25
2019-05-05T22:24:44.768Z,3.25
2019-05-05T22:27:14.039Z,4.05
2019-05-05T22:29:44.648Z,3.60
2019-05-05T22:32:14.159Z,3.22
2019-05-05T22:34:44.391Z,5.00
2019-05-05T22:37:14.333Z,2.67
2019-05-05T22:39:44.495Z,2.80
2019-05-05T22:42:15.714Z,3.62
2019-05-05T22:44:45.127Z,2.95
2019-05-05T22:47:14.868Z,3.40
2019-05-05T22:49:44.432Z,3.58
2019-05-05T22:52:14.430Z,3.95
2019-05-05T22:54:44.395Z,2.90
2019-05-05T22:57:14.103Z,3.40
2019-05-05T22:59:43.481Z,2.85
2019-05-05T23:02:14.716Z,2.62
2019-05-05T23:04:48.402Z,3.83
2019-05-05T23:07:25.353Z,3.33
2019-05-05T23:09:54.643Z,3.45
2019-05-05T23:12:24.367Z,3.50
2019-05-05T23:14:54.545Z,3.70
2019-05-05T23:17:26.445Z,3.70
2019-05-05T23:19:57.580Z,3.83
2019-05-05T23:22:37.583Z,4.05
2019-05-05T23:25:11.220Z,3.02
2019-05-05T23:27:50.657Z,2.92
2019-05-05T23:30:32.143Z,4.72
2019-05-05T23:32:55.019Z,3.50
2019-05-05T23:35:24.388Z,4.50
2019-05-05T23:37:55.233Z,3.77
2019-05-05T23:40:26.714Z,3.67
2019-05-05T23:42:55.995Z,3.45
2019-05-05T23:45:25.282Z,3.50
2019-05-05T23:47:54.849Z,3.80
2019-05-05T23:50:24.611Z,3.90
2019-05-05T23:52:54.702Z,3.85
2019-05-05T23:55:24.303Z,4.00
2019-05-05T23:57:54.587Z,4.30
